sensor_id;sensor_type;location;lat;lon;timestamp;P1;durP1;ratioP1;P2;durP2;ratioP2
73575;SDS011;61859;49.204;8.140;2022-11-09T00:00:40;3.27;;;2.80;;
73575;SDS011;61859;49.204;8.140;2022-11-09T00:03:06;8.10;;;2.77;;
73575;SDS011;61859;49.204;8.140;2022-11-09T00:05:31;3.33;;;2.80;;
73575;SDS011;61859;49.204;8.140;2022-11-09T00:07:57;3.33;;;2.80;;
73575;SDS011;61859;49.204;8.140;2022-11-09T00:10:23;3.47;;;2.53;;
73575;SDS011;61859;49.204;8.140;2022-11-09T00:12:48;3.67;;;2.40;;
73575;SDS011;61859;49.204;8.140;2022-11-09T00:15:14;3.17;;;2.13;;
73575;SDS011;61859;49.204;8.140;2022-11-09T00:17:39;2.93;;;2.67;;
73575;SDS011;61859;49.204;8.140;2022-11-09T00:20:05;2.70;;;2.50;;
73575;SDS011;61859;49.204;8.140;2022-11-09T00:22:31;2.83;;;2.33;;
73575;SDS011;61859;49.204;8.140;2022-11-09T00:24:56;4.03;;;3.30;;
73575;SDS011;61859;49.204;8.140;2022-11-09T00:27:22;3.67;;;2.83;;
73575;SDS011;61859;49.204;8.140;2022-11-09T00:29:47;2.57;;;2.37;;
73575;SDS011;61859;49.204;8.140;2022-11-09T00:32:13;3.73;;;2.83;;
73575;SDS011;61859;49.204;8.140;2022-11-09T00:34:38;4.07;;;2.67;;
73575;SDS011;61859;49.204;8.140;2022-11-09T00:37:04;3.37;;;2.43;;
73575;SDS011;61859;49.204;8.140;2022-11-09T00:39:29;5.17;;;2.50;;
73575;SDS011;61859;49.204;8.140;2022-11-09T00:41:55;4.00;;;2.50;;
73575;SDS011;61859;49.204;8.140;2022-11-09T00:44:20;2.50;;;2.27;;
73575;SDS011;61859;49.204;8.140;2022-11-09T00:46:46;2.80;;;2.57;;
73575;SDS011;61859;49.204;8.140;2022-11-09T00:49:11;3.53;;;2.80;;
73575;SDS011;61859;49.204;8.140;2022-11-09T00:51:37;5.17;;;3.10;;
73575;SDS011;61859;49.204;8.140;2022-11-09T00:54:02;4.43;;;3.40;;
73575;SDS011;61859;49.204;8.140;2022-11-09T00:56:28;3.87;;;3.37;;
73575;SDS011;61859;49.204;8.140;2022-11-09T00:58:54;3.80;;;3.10;;
73575;SDS011;61859;49.204;8.140;2022-11-09T01:01:20;3.60;;;3.00;;
73575;SDS011;61859;49.204;8.140;2022-11-09T01:03:45;5.57;;;3.40;;
73575;SDS011;61859;49.204;8.140;2022-11-09T01:06:21;5.53;;;3.53;;
73575;SDS011;61859;49.204;8.140;2022-11-09T01:08:48;4.93;;;3.57;;
73575;SDS011;61859;49.204;8.140;2022-11-09T01:11:15;3.97;;;3.20;;
73575;SDS011;61859;49.204;8.140;2022-11-09T01:13:42;5.23;;;3.60;;
73575;SDS011;61859;49.204;8.140;2022-11-09T01:16:10;4.30;;;3.80;;
73575;SDS011;61859;49.204;8.140;2022-11-09T01:18:41;4.67;;;4.17;;
73575;SDS011;61859;49.204;8.140;2022-11-09T01:21:08;6.80;;;3.70;;
73575;SDS011;61859;49.204;8.140;2022-11-09T01:23:35;4.77;;;3.30;;
73575;SDS011;61859;49.204;8.140;2022-11-09T01:26:06;4.80;;;3.57;;
73575;SDS011;61859;49.204;8.140;2022-11-09T01:28:33;4.90;;;4.10;;
73575;SDS011;61859;49.204;8.140;2022-11-09T01:31:02;4.30;;;3.77;;
73575;SDS011;61859;49.204;8.140;2022-11-09T01:33:38;5.27;;;4.10;;
73575;SDS011;61859;49.204;8.140;2022-11-09T01:36:05;5.17;;;4.10;;
73575;SDS011;61859;49.204;8.140;2022-11-09T01:38:32;5.17;;;3.97;;
73575;SDS011;61859;49.204;8.140;2022-11-09T01:40:59;5.67;;;3.97;;
73575;SDS011;61859;49.204;8.140;2022-11-09T01:43:25;5.43;;;4.00;;
73575;SDS011;61859;49.204;8.140;2022-11-09T01:49:02;4.60;;;4.10;;
73575;SDS011;61859;49.204;8.140;2022-11-09T01:51:16;4.20;;;3.83;;
73575;SDS011;61859;49.204;8.140;2022-11-09T01:53:44;5.13;;;4.00;;
73575;SDS011;61859;49.204;8.140;2022-11-09T01:56:12;4.70;;;4.20;;
73575;SDS011;61859;49.204;8.140;2022-11-09T01:58:43;4.50;;;3.77;;
73575;SDS011;61859;49.204;8.140;2022-11-09T02:01:16;5.33;;;4.00;;
73575;SDS011;61859;49.204;8.140;2022-11-09T02:03:44;4.23;;;3.53;;
73575;SDS011;61859;49.204;8.140;2022-11-09T02:06:13;5.93;;;3.97;;
73575;SDS011;61859;49.204;8.140;2022-11-09T02:08:41;5.00;;;4.47;;
73575;SDS011;61859;49.204;8.140;2022-11-09T02:11:12;5.20;;;4.43;;
73575;SDS011;61859;49.204;8.140;2022-11-09T02:13:43;8.30;;;4.57;;
73575;SDS011;61859;49.204;8.140;2022-11-09T02:16:15;6.60;;;4.90;;
73575;SDS011;61859;49.204;8.140;2022-11-09T02:18:53;6.37;;;4.57;;
73575;SDS011;61859;49.204;8.140;2022-11-09T02:21:20;6.97;;;4.73;;
73575;SDS011;61859;49.204;8.140;2022-11-09T02:23:47;7.03;;;4.63;;
73575;SDS011;61859;49.204;8.140;2022-11-09T02:26:15;6.00;;;5.03;;
73575;SDS011;61859;49.204;8.140;2022-11-09T02:28:46;7.80;;;4.93;;
73575;SDS011;61859;49.204;8.140;2022-11-09T02:31:13;7.50;;;5.33;;
73575;SDS011;61859;49.204;8.140;2022-11-09T02:33:43;5.23;;;4.63;;
73575;SDS011;61859;49.204;8.140;2022-11-09T02:36:17;8.17;;;5.07;;
73575;SDS011;61859;49.204;8.140;2022-11-09T02:38:42;6.27;;;4.87;;
73575;SDS011;61859;49.204;8.140;2022-11-09T02:41:08;5.90;;;4.80;;
73575;SDS011;61859;49.204;8.140;2022-11-09T02:43:35;6.63;;;4.67;;
73575;SDS011;61859;49.204;8.140;2022-11-09T02:46:02;6.27;;;5.03;;
73575;SDS011;61859;49.204;8.140;2022-11-09T02:48:27;5.70;;;5.07;;
73575;SDS011;61859;49.204;8.140;2022-11-09T02:50:53;6.40;;;4.97;;
73575;SDS011;61859;49.204;8.140;2022-11-09T02:53:18;6.73;;;5.07;;
73575;SDS011;61859;49.204;8.140;2022-11-09T02:55:44;5.70;;;5.00;;
73575;SDS011;61859;49.204;8.140;2022-11-09T02:58:09;6.47;;;4.77;;
73575;SDS011;61859;49.204;8.140;2022-11-09T03:00:35;7.10;;;6.07;;
73575;SDS011;61859;49.204;8.140;2022-11-09T03:03:01;7.23;;;5.67;;
73575;SDS011;61859;49.204;8.140;2022-11-09T03:05:27;7.13;;;5.00;;
73575;SDS011;61859;49.204;8.140;2022-11-09T03:07:53;6.53;;;5.40;;
73575;SDS011;61859;49.204;8.140;2022-11-09T03:10:18;7.40;;;5.37;;
73575;SDS011;61859;49.204;8.140;2022-11-09T03:12:44;6.70;;;5.23;;
73575;SDS011;61859;49.204;8.140;2022-11-09T03:15:10;6.67;;;5.27;;
73575;SDS011;61859;49.204;8.140;2022-11-09T03:17:35;6.00;;;5.20;;
73575;SDS011;61859;49.204;8.140;2022-11-09T03:20:01;6.37;;;5.03;;
73575;SDS011;61859;49.204;8.140;2022-11-09T03:22:27;8.77;;;5.27;;
73575;SDS011;61859;49.204;8.140;2022-11-09T03:24:53;7.00;;;5.30;;
73575;SDS011;61859;49.204;8.140;2022-11-09T03:27:19;5.77;;;4.80;;
73575;SDS011;61859;49.204;8.140;2022-11-09T03:29:44;7.17;;;4.90;;
73575;SDS011;61859;49.204;8.140;2022-11-09T03:32:10;6.17;;;5.20;;
73575;SDS011;61859;49.204;8.140;2022-11-09T03:34:35;6.80;;;5.20;;
73575;SDS011;61859;49.204;8.140;2022-11-09T03:37:01;7.40;;;4.17;;
73575;SDS011;61859;49.204;8.140;2022-11-09T03:39:26;6.07;;;5.10;;
73575;SDS011;61859;49.204;8.140;2022-11-09T03:41:52;6.17;;;4.90;;
73575;SDS011;61859;49.204;8.140;2022-11-09T03:44:17;6.60;;;4.83;;
73575;SDS011;61859;49.204;8.140;2022-11-09T03:46:44;5.57;;;4.83;;
73575;SDS011;61859;49.204;8.140;2022-11-09T03:49:10;6.20;;;5.03;;
73575;SDS011;61859;49.204;8.140;2022-11-09T03:51:35;6.60;;;5.47;;
73575;SDS011;61859;49.204;8.140;2022-11-09T03:54:01;7.53;;;5.63;;
73575;SDS011;61859;49.204;8.140;2022-11-09T03:56:27;7.47;;;5.60;;
73575;SDS011;61859;49.204;8.140;2022-11-09T03:58:52;7.13;;;6.10;;
73575;SDS011;61859;49.204;8.140;2022-11-09T04:01:18;7.20;;;5.90;;
73575;SDS011;61859;49.204;8.140;2022-11-09T04:03:44;6.07;;;5.33;;
73575;SDS011;61859;49.204;8.140;2022-11-09T04:06:09;7.77;;;6.03;;
73575;SDS011;61859;49.204;8.140;2022-11-09T04:08:35;7.60;;;6.37;;
73575;SDS011;61859;49.204;8.140;2022-11-09T04:11:00;9.83;;;6.40;;
73575;SDS011;61859;49.204;8.140;2022-11-09T04:13:26;8.53;;;6.40;;
73575;SDS011;61859;49.204;8.140;2022-11-09T04:15:51;8.07;;;5.83;;
73575;SDS011;61859;49.204;8.140;2022-11-09T04:18:17;7.47;;;6.20;;
73575;SDS011;61859;49.204;8.140;2022-11-09T04:20:42;7.97;;;6.37;;
73575;SDS011;61859;49.204;8.140;2022-11-09T04:23:09;8.63;;;6.93;;
73575;SDS011;61859;49.204;8.140;2022-11-09T04:28:04;7.53;;;5.67;;
73575;SDS011;61859;49.204;8.140;2022-11-09T04:30:31;9.07;;;6.77;;
73575;SDS011;61859;49.204;8.140;2022-11-09T04:32:58;8.97;;;6.30;;
73575;SDS011;61859;49.204;8.140;2022-11-09T04:35:25;8.23;;;6.20;;
73575;SDS011;61859;49.204;8.140;2022-11-09T04:37:55;9.13;;;6.10;;
73575;SDS011;61859;49.204;8.140;2022-11-09T04:40:23;7.10;;;5.90;;
73575;SDS011;61859;49.204;8.140;2022-11-09T04:42:50;8.10;;;6.40;;
73575;SDS011;61859;49.204;8.140;2022-11-09T04:45:16;8.30;;;6.20;;
73575;SDS011;61859;49.204;8.140;2022-11-09T04:47:42;8.57;;;6.57;;
73575;SDS011;61859;49.204;8.140;2022-11-09T04:50:08;7.53;;;6.77;;
73575;SDS011;61859;49.204;8.140;2022-11-09T04:52:33;10.77;;;6.60;;
73575;SDS011;61859;49.204;8.140;2022-11-09T04:54:59;8.63;;;6.23;;
73575;SDS011;61859;49.204;8.140;2022-11-09T04:57:24;10.00;;;6.57;;
73575;SDS011;61859;49.204;8.140;2022-11-09T04:59:50;8.23;;;6.37;;
73575;SDS011;61859;49.204;8.140;2022-11-09T05:02:15;8.33;;;6.33;;
73575;SDS011;61859;49.204;8.140;2022-11-09T05:04:41;8.10;;;6.50;;
73575;SDS011;61859;49.204;8.140;2022-11-09T05:07:07;6.87;;;5.90;;
73575;SDS011;61859;49.204;8.140;2022-11-09T05:09:32;7.33;;;5.70;;
73575;SDS011;61859;49.204;8.140;2022-11-09T05:11:58;8.13;;;6.20;;
73575;SDS011;61859;49.204;8.140;2022-11-09T05:14:23;7.47;;;5.30;;
73575;SDS011;61859;49.204;8.140;2022-11-09T05:16:49;6.57;;;5.57;;
73575;SDS011;61859;49.204;8.140;2022-11-09T05:19:14;7.20;;;5.97;;
73575;SDS011;61859;49.204;8.140;2022-11-09T05:21:40;6.53;;;5.37;;
73575;SDS011;61859;49.204;8.140;2022-11-09T05:24:06;5.80;;;5.17;;
73575;SDS011;61859;49.204;8.140;2022-11-09T05:26:34;6.17;;;5.33;;
73575;SDS011;61859;49.204;8.140;2022-11-09T05:29:02;4.80;;;4.00;;
73575;SDS011;61859;49.204;8.140;2022-11-09T05:31:29;5.73;;;4.60;;
73575;SDS011;61859;49.204;8.140;2022-11-09T05:33:55;4.17;;;3.77;;
73575;SDS011;61859;49.204;8.140;2022-11-09T05:36:21;4.27;;;3.87;;
73575;SDS011;61859;49.204;8.140;2022-11-09T05:38:47;3.63;;;3.07;;
73575;SDS011;61859;49.204;8.140;2022-11-09T05:41:13;3.13;;;2.70;;
73575;SDS011;61859;49.204;8.140;2022-11-09T05:43:39;3.87;;;2.80;;
73575;SDS011;61859;49.204;8.140;2022-11-09T05:46:05;2.77;;;2.47;;
73575;SDS011;61859;49.204;8.140;2022-11-09T05:48:31;2.97;;;2.20;;
73575;SDS011;61859;49.204;8.140;2022-11-09T05:51:01;2.40;;;2.20;;
73575;SDS011;61859;49.204;8.140;2022-11-09T05:53:29;2.97;;;1.97;;
73575;SDS011;61859;49.204;8.140;2022-11-09T05:55:55;3.03;;;1.97;;
73575;SDS011;61859;49.204;8.140;2022-11-09T05:58:24;2.13;;;1.47;;
73575;SDS011;61859;49.204;8.140;2022-11-09T06:00:50;2.73;;;2.00;;
73575;SDS011;61859;49.204;8.140;2022-11-09T06:03:15;2.77;;;1.40;;
73575;SDS011;61859;49.204;8.140;2022-11-09T06:05:41;1.47;;;1.37;;
73575;SDS011;61859;49.204;8.140;2022-11-09T06:08:08;1.50;;;1.40;;
73575;SDS011;61859;49.204;8.140;2022-11-09T06:10:36;1.43;;;1.33;;
73575;SDS011;61859;49.204;8.140;2022-11-09T06:13:02;1.40;;;1.30;;
73575;SDS011;61859;49.204;8.140;2022-11-09T06:15:28;2.17;;;1.70;;
73575;SDS011;61859;49.204;8.140;2022-11-09T06:17:54;2.33;;;1.93;;
73575;SDS011;61859;49.204;8.140;2022-11-09T06:20:21;2.30;;;2.10;;
73575;SDS011;61859;49.204;8.140;2022-11-09T06:22:54;1.97;;;1.80;;
73575;SDS011;61859;49.204;8.140;2022-11-09T06:25:20;2.10;;;1.90;;
73575;SDS011;61859;49.204;8.140;2022-11-09T06:27:46;1.90;;;1.80;;
73575;SDS011;61859;49.204;8.140;2022-11-09T06:30:12;2.50;;;1.67;;
73575;SDS011;61859;49.204;8.140;2022-11-09T06:32:38;1.73;;;1.63;;
73575;SDS011;61859;49.204;8.140;2022-11-09T06:35:03;2.23;;;2.03;;
73575;SDS011;61859;49.204;8.140;2022-11-09T06:37:29;3.17;;;2.00;;
73575;SDS011;61859;49.204;8.140;2022-11-09T06:39:55;2.10;;;1.97;;
73575;SDS011;61859;49.204;8.140;2022-11-09T06:42:21;2.63;;;2.10;;
73575;SDS011;61859;49.204;8.140;2022-11-09T06:44:46;2.67;;;2.33;;
73575;SDS011;61859;49.204;8.140;2022-11-09T06:47:12;2.37;;;2.13;;
73575;SDS011;61859;49.204;8.140;2022-11-09T06:49:37;2.83;;;2.60;;
73575;SDS011;61859;49.204;8.140;2022-11-09T06:52:03;3.30;;;2.70;;
73575;SDS011;61859;49.204;8.140;2022-11-09T06:54:28;3.57;;;2.70;;
73575;SDS011;61859;49.204;8.140;2022-11-09T06:56:54;3.83;;;2.33;;
73575;SDS011;61859;49.204;8.140;2022-11-09T06:59:20;4.53;;;2.70;;
73575;SDS011;61859;49.204;8.140;2022-11-09T07:01:46;3.33;;;2.20;;
73575;SDS011;61859;49.204;8.140;2022-11-09T07:04:11;3.50;;;2.67;;
73575;SDS011;61859;49.204;8.140;2022-11-09T07:06:39;3.50;;;2.40;;
73575;SDS011;61859;49.204;8.140;2022-11-09T07:09:05;2.93;;;2.43;;
73575;SDS011;61859;49.204;8.140;2022-11-09T07:11:31;2.43;;;2.23;;
73575;SDS011;61859;49.204;8.140;2022-11-09T07:13:57;2.23;;;1.90;;
73575;SDS011;61859;49.204;8.140;2022-11-09T07:16:22;3.07;;;1.90;;
73575;SDS011;61859;49.204;8.140;2022-11-09T07:18:48;2.20;;;1.70;;
73575;SDS011;61859;49.204;8.140;2022-11-09T07:21:13;3.57;;;1.37;;
73575;SDS011;61859;49.204;8.140;2022-11-09T07:23:39;1.60;;;1.50;;
73575;SDS011;61859;49.204;8.140;2022-11-09T07:26:05;1.30;;;1.20;;
73575;SDS011;61859;49.204;8.140;2022-11-09T07:28:31;1.83;;;1.50;;
73575;SDS011;61859;49.204;8.140;2022-11-09T07:30:57;1.13;;;0.93;;
73575;SDS011;61859;49.204;8.140;2022-11-09T07:33:23;3.03;;;1.30;;
73575;SDS011;61859;49.204;8.140;2022-11-09T07:35:49;1.97;;;1.30;;
73575;SDS011;61859;49.204;8.140;2022-11-09T07:38:15;1.57;;;1.47;;
73575;SDS011;61859;49.204;8.140;2022-11-09T07:40:41;1.43;;;1.33;;
73575;SDS011;61859;49.204;8.140;2022-11-09T07:43:08;2.07;;;1.33;;
73575;SDS011;61859;49.204;8.140;2022-11-09T07:45:35;1.80;;;1.43;;
73575;SDS011;61859;49.204;8.140;2022-11-09T07:48:02;1.60;;;1.20;;
73575;SDS011;61859;49.204;8.140;2022-11-09T07:50:30;1.03;;;0.90;;
73575;SDS011;61859;49.204;8.140;2022-11-09T07:52:57;1.33;;;1.10;;
73575;SDS011;61859;49.204;8.140;2022-11-09T07:55:23;1.90;;;1.53;;
73575;SDS011;61859;49.204;8.140;2022-11-09T07:57:54;0.97;;;0.97;;
73575;SDS011;61859;49.204;8.140;2022-11-09T08:00:31;1.50;;;1.40;;
73575;SDS011;61859;49.204;8.140;2022-11-09T08:02:58;2.10;;;1.07;;
73575;SDS011;61859;49.204;8.140;2022-11-09T08:05:24;1.43;;;1.33;;
73575;SDS011;61859;49.204;8.140;2022-11-09T08:07:56;2.13;;;1.30;;
73575;SDS011;61859;49.204;8.140;2022-11-09T08:10:23;1.70;;;1.60;;
73575;SDS011;61859;49.204;8.140;2022-11-09T08:12:53;1.67;;;1.57;;
73575;SDS011;61859;49.204;8.140;2022-11-09T08:15:19;2.83;;;2.07;;
73575;SDS011;61859;49.204;8.140;2022-11-09T08:17:45;2.03;;;1.87;;
73575;SDS011;61859;49.204;8.140;2022-11-09T08:20:11;2.27;;;2.07;;
73575;SDS011;61859;49.204;8.140;2022-11-09T08:22:43;3.67;;;2.17;;
73575;SDS011;61859;49.204;8.140;2022-11-09T08:25:10;3.43;;;2.80;;
73575;SDS011;61859;49.204;8.140;2022-11-09T08:27:36;3.40;;;3.10;;
73575;SDS011;61859;49.204;8.140;2022-11-09T08:30:09;3.33;;;2.60;;
73575;SDS011;61859;49.204;8.140;2022-11-09T08:32:43;3.90;;;3.43;;
73575;SDS011;61859;49.204;8.140;2022-11-09T08:35:09;3.30;;;3.00;;
73575;SDS011;61859;49.204;8.140;2022-11-09T08:37:37;6.83;;;3.50;;
73575;SDS011;61859;49.204;8.140;2022-11-09T08:40:04;3.87;;;3.40;;
73575;SDS011;61859;49.204;8.140;2022-11-09T08:42:31;3.50;;;3.20;;
73575;SDS011;61859;49.204;8.140;2022-11-09T08:44:56;3.60;;;3.17;;
73575;SDS011;61859;49.204;8.140;2022-11-09T08:47:22;4.33;;;3.00;;
73575;SDS011;61859;49.204;8.140;2022-11-09T08:49:47;3.20;;;2.90;;
73575;SDS011;61859;49.204;8.140;2022-11-09T08:52:14;3.10;;;2.77;;
73575;SDS011;61859;49.204;8.140;2022-11-09T08:54:41;3.30;;;2.63;;
73575;SDS011;61859;49.204;8.140;2022-11-09T08:57:06;2.70;;;2.37;;
73575;SDS011;61859;49.204;8.140;2022-11-09T08:59:32;3.93;;;2.40;;
73575;SDS011;61859;49.204;8.140;2022-11-09T09:01:57;2.70;;;2.40;;
73575;SDS011;61859;49.204;8.140;2022-11-09T09:04:23;4.33;;;2.60;;
73575;SDS011;61859;49.204;8.140;2022-11-09T09:06:48;2.20;;;2.00;;
73575;SDS011;61859;49.204;8.140;2022-11-09T09:09:14;2.50;;;2.10;;
73575;SDS011;61859;49.204;8.140;2022-11-09T09:11:40;1.70;;;1.60;;
73575;SDS011;61859;49.204;8.140;2022-11-09T09:14:05;3.50;;;1.93;;
73575;SDS011;61859;49.204;8.140;2022-11-09T09:16:31;2.00;;;1.80;;
73575;SDS011;61859;49.204;8.140;2022-11-09T09:18:57;2.70;;;2.10;;
73575;SDS011;61859;49.204;8.140;2022-11-09T09:21:23;1.67;;;1.57;;
73575;SDS011;61859;49.204;8.140;2022-11-09T09:23:48;2.30;;;1.70;;
73575;SDS011;61859;49.204;8.140;2022-11-09T09:26:14;1.63;;;1.53;;
73575;SDS011;61859;49.204;8.140;2022-11-09T09:28:40;1.63;;;1.50;;
73575;SDS011;61859;49.204;8.140;2022-11-09T09:31:06;3.90;;;1.47;;
73575;SDS011;61859;49.204;8.140;2022-11-09T09:33:32;1.93;;;1.33;;
73575;SDS011;61859;49.204;8.140;2022-11-09T09:35:57;2.20;;;1.63;;
73575;SDS011;61859;49.204;8.140;2022-11-09T09:38:24;2.40;;;1.30;;
73575;SDS011;61859;49.204;8.140;2022-11-09T09:43:25;1.70;;;1.40;;
73575;SDS011;61859;49.204;8.140;2022-11-09T09:45:51;1.43;;;1.33;;
73575;SDS011;61859;49.204;8.140;2022-11-09T09:51:11;2.60;;;1.60;;
73575;SDS011;61859;49.204;8.140;2022-11-09T09:53:45;1.60;;;1.33;;
73575;SDS011;61859;49.204;8.140;2022-11-09T09:56:22;1.40;;;1.30;;
73575;SDS011;61859;49.204;8.140;2022-11-09T09:58:56;2.07;;;1.70;;
73575;SDS011;61859;49.204;8.140;2022-11-09T10:01:34;1.93;;;1.50;;
73575;SDS011;61859;49.204;8.140;2022-11-09T10:04:01;2.33;;;1.73;;
73575;SDS011;61859;49.204;8.140;2022-11-09T10:17:12;2.33;;;1.47;;
73575;SDS011;61859;49.204;8.140;2022-11-09T10:20:23;1.37;;;1.27;;
73575;SDS011;61859;49.204;8.140;2022-11-09T10:23:27;1.90;;;1.63;;
73575;SDS011;61859;49.204;8.140;2022-11-09T10:26:03;1.53;;;1.30;;
73575;SDS011;61859;49.204;8.140;2022-11-09T10:28:35;1.50;;;1.10;;
73575;SDS011;61859;49.204;8.140;2022-11-09T10:31:07;1.43;;;1.33;;
73575;SDS011;61859;49.204;8.140;2022-11-09T10:33:39;2.10;;;1.60;;
73575;SDS011;61859;49.204;8.140;2022-11-09T10:36:23;1.93;;;1.43;;
73575;SDS011;61859;49.204;8.140;2022-11-09T10:38:55;1.40;;;1.30;;
73575;SDS011;61859;49.204;8.140;2022-11-09T10:41:29;1.33;;;1.17;;
73575;SDS011;61859;49.204;8.140;2022-11-09T10:44:13;3.10;;;1.30;;
73575;SDS011;61859;49.204;8.140;2022-11-09T10:47:01;2.60;;;1.23;;
73575;SDS011;61859;49.204;8.140;2022-11-09T10:49:28;1.40;;;1.27;;
73575;SDS011;61859;49.204;8.140;2022-11-09T10:51:54;1.97;;;1.33;;
73575;SDS011;61859;49.204;8.140;2022-11-09T10:54:21;2.40;;;1.47;;
73575;SDS011;61859;49.204;8.140;2022-11-09T10:56:49;1.77;;;1.30;;
73575;SDS011;61859;49.204;8.140;2022-11-09T11:04:50;0.97;;;0.90;;
73575;SDS011;61859;49.204;8.140;2022-11-09T11:07:32;2.97;;;0.83;;
73575;SDS011;61859;49.204;8.140;2022-11-09T11:12:40;4.00;;;1.30;;
73575;SDS011;61859;49.204;8.140;2022-11-09T11:15:20;1.20;;;1.10;;
73575;SDS011;61859;49.204;8.140;2022-11-09T11:18:03;1.97;;;1.37;;
73575;SDS011;61859;49.204;8.140;2022-11-09T11:20:36;2.00;;;1.40;;
73575;SDS011;61859;49.204;8.140;2022-11-09T11:23:12;1.87;;;1.40;;
73575;SDS011;61859;49.204;8.140;2022-11-09T11:31:10;2.67;;;1.27;;
73575;SDS011;61859;49.204;8.140;2022-11-09T11:33:38;2.67;;;1.50;;
73575;SDS011;61859;49.204;8.140;2022-11-09T11:41:39;1.37;;;1.27;;
73575;SDS011;61859;49.204;8.140;2022-11-09T11:47:17;1.93;;;1.40;;
73575;SDS011;61859;49.204;8.140;2022-11-09T11:52:46;1.50;;;1.40;;
73575;SDS011;61859;49.204;8.140;2022-11-09T11:58:17;1.57;;;1.33;;
73575;SDS011;61859;49.204;8.140;2022-11-09T12:12:18;2.37;;;1.20;;
73575;SDS011;61859;49.204;8.140;2022-11-09T12:14:56;1.80;;;1.27;;
73575;SDS011;61859;49.204;8.140;2022-11-09T12:17:47;2.90;;;1.00;;
73575;SDS011;61859;49.204;8.140;2022-11-09T12:26:06;2.80;;;1.00;;
73575;SDS011;61859;49.204;8.140;2022-11-09T12:29:01;1.57;;;1.20;;
73575;SDS011;61859;49.204;8.140;2022-11-09T12:46:06;2.30;;;1.20;;
73575;SDS011;61859;49.204;8.140;2022-11-09T12:48:35;2.70;;;1.10;;
73575;SDS011;61859;49.204;8.140;2022-11-09T12:51:02;1.57;;;1.10;;
73575;SDS011;61859;49.204;8.140;2022-11-09T12:53:34;1.93;;;1.10;;
73575;SDS011;61859;49.204;8.140;2022-11-09T12:56:03;2.40;;;1.47;;
73575;SDS011;61859;49.204;8.140;2022-11-09T12:58:46;1.67;;;1.37;;
73575;SDS011;61859;49.204;8.140;2022-11-09T13:01:12;1.50;;;0.90;;
73575;SDS011;61859;49.204;8.140;2022-11-09T13:03:57;0.70;;;0.70;;
73575;SDS011;61859;49.204;8.140;2022-11-09T13:06:27;1.07;;;0.97;;
73575;SDS011;61859;49.204;8.140;2022-11-09T13:08:55;1.43;;;1.00;;
73575;SDS011;61859;49.204;8.140;2022-11-09T13:11:25;1.60;;;0.93;;
73575;SDS011;61859;49.204;8.140;2022-11-09T13:16:46;1.40;;;1.30;;
73575;SDS011;61859;49.204;8.140;2022-11-09T13:22:00;2.10;;;1.60;;
73575;SDS011;61859;49.204;8.140;2022-11-09T13:26:59;1.87;;;1.30;;
73575;SDS011;61859;49.204;8.140;2022-11-09T13:30:15;2.63;;;1.30;;
73575;SDS011;61859;49.204;8.140;2022-11-09T13:37:34;1.30;;;1.07;;
73575;SDS011;61859;49.204;8.140;2022-11-09T13:40:37;2.17;;;1.00;;
73575;SDS011;61859;49.204;8.140;2022-11-09T13:42:58;3.43;;;1.13;;
73575;SDS011;61859;49.204;8.140;2022-11-09T13:45:28;1.53;;;1.23;;
73575;SDS011;61859;49.204;8.140;2022-11-09T13:48:05;4.37;;;1.37;;
73575;SDS011;61859;49.204;8.140;2022-11-09T13:50:50;1.63;;;1.00;;
73575;SDS011;61859;49.204;8.140;2022-11-09T14:06:59;1.03;;;1.03;;
73575;SDS011;61859;49.204;8.140;2022-11-09T14:09:25;1.50;;;1.40;;
73575;SDS011;61859;49.204;8.140;2022-11-09T14:17:50;3.53;;;2.07;;
73575;SDS011;61859;49.204;8.140;2022-11-09T14:20:39;4.20;;;1.93;;
73575;SDS011;61859;49.204;8.140;2022-11-09T14:23:15;2.97;;;1.50;;
73575;SDS011;61859;49.204;8.140;2022-11-09T14:25:43;2.57;;;1.80;;
73575;SDS011;61859;49.204;8.140;2022-11-09T14:28:18;1.83;;;1.73;;
73575;SDS011;61859;49.204;8.140;2022-11-09T14:30:44;5.70;;;4.03;;
73575;SDS011;61859;49.204;8.140;2022-11-09T14:33:19;4.03;;;2.90;;
73575;SDS011;61859;49.204;8.140;2022-11-09T14:35:47;2.63;;;1.93;;
73575;SDS011;61859;49.204;8.140;2022-11-09T14:38:15;1.80;;;1.63;;
73575;SDS011;61859;49.204;8.140;2022-11-09T14:40:43;1.60;;;1.50;;
73575;SDS011;61859;49.204;8.140;2022-11-09T14:43:27;3.77;;;2.40;;
73575;SDS011;61859;49.204;8.140;2022-11-09T14:46:15;5.13;;;1.97;;
73575;SDS011;61859;49.204;8.140;2022-11-09T14:48:49;2.93;;;1.97;;
73575;SDS011;61859;49.204;8.140;2022-11-09T14:51:31;2.87;;;2.27;;
73575;SDS011;61859;49.204;8.140;2022-11-09T14:54:01;3.30;;;2.20;;
73575;SDS011;61859;49.204;8.140;2022-11-09T14:56:29;2.90;;;2.30;;
73575;SDS011;61859;49.204;8.140;2022-11-09T14:58:57;2.53;;;1.90;;
73575;SDS011;61859;49.204;8.140;2022-11-09T15:01:26;2.23;;;2.03;;
73575;SDS011;61859;49.204;8.140;2022-11-09T15:06:35;2.80;;;2.10;;
73575;SDS011;61859;49.204;8.140;2022-11-09T15:09:14;5.37;;;3.00;;
73575;SDS011;61859;49.204;8.140;2022-11-09T15:11:42;7.03;;;2.87;;
73575;SDS011;61859;49.204;8.140;2022-11-09T15:30:38;2.83;;;1.40;;
73575;SDS011;61859;49.204;8.140;2022-11-09T15:35:47;2.70;;;1.90;;
73575;SDS011;61859;49.204;8.140;2022-11-09T15:40:58;3.20;;;2.70;;
73575;SDS011;61859;49.204;8.140;2022-11-09T15:43:24;3.10;;;2.47;;
73575;SDS011;61859;49.204;8.140;2022-11-09T15:45:51;3.13;;;1.93;;
73575;SDS011;61859;49.204;8.140;2022-11-09T15:48:17;2.93;;;2.20;;
73575;SDS011;61859;49.204;8.140;2022-11-09T15:50:43;1.70;;;1.50;;
73575;SDS011;61859;49.204;8.140;2022-11-09T15:53:09;5.50;;;2.80;;
73575;SDS011;61859;49.204;8.140;2022-11-09T15:55:36;2.80;;;2.50;;
73575;SDS011;61859;49.204;8.140;2022-11-09T15:58:02;3.37;;;2.27;;
73575;SDS011;61859;49.204;8.140;2022-11-09T16:00:28;1.40;;;1.30;;
73575;SDS011;61859;49.204;8.140;2022-11-09T16:02:53;1.53;;;1.40;;
73575;SDS011;61859;49.204;8.140;2022-11-09T16:05:19;4.10;;;3.50;;
73575;SDS011;61859;49.204;8.140;2022-11-09T16:07:47;2.70;;;2.17;;
73575;SDS011;61859;49.204;8.140;2022-11-09T16:10:17;7.50;;;3.90;;
73575;SDS011;61859;49.204;8.140;2022-11-09T16:12:44;4.37;;;3.57;;
73575;SDS011;61859;49.204;8.140;2022-11-09T16:15:10;4.10;;;2.60;;
73575;SDS011;61859;49.204;8.140;2022-11-09T16:17:36;2.00;;;1.63;;
73575;SDS011;61859;49.204;8.140;2022-11-09T16:20:02;2.30;;;2.10;;
73575;SDS011;61859;49.204;8.140;2022-11-09T16:22:29;2.60;;;2.40;;
73575;SDS011;61859;49.204;8.140;2022-11-09T16:24:56;3.57;;;2.10;;
73575;SDS011;61859;49.204;8.140;2022-11-09T16:27:22;4.90;;;2.67;;
73575;SDS011;61859;49.204;8.140;2022-11-09T16:29:48;3.53;;;2.77;;
73575;SDS011;61859;49.204;8.140;2022-11-09T16:32:15;5.13;;;3.73;;
73575;SDS011;61859;49.204;8.140;2022-11-09T16:34:40;6.53;;;4.00;;
73575;SDS011;61859;49.204;8.140;2022-11-09T16:37:06;6.37;;;3.80;;
73575;SDS011;61859;49.204;8.140;2022-11-09T16:39:32;6.80;;;3.63;;
73575;SDS011;61859;49.204;8.140;2022-11-09T16:42:00;8.10;;;5.13;;
73575;SDS011;61859;49.204;8.140;2022-11-09T16:44:31;7.20;;;4.47;;
73575;SDS011;61859;49.204;8.140;2022-11-09T16:47:03;6.03;;;3.70;;
73575;SDS011;61859;49.204;8.140;2022-11-09T16:49:30;1.73;;;1.63;;
73575;SDS011;61859;49.204;8.140;2022-11-09T16:51:56;1.33;;;1.20;;
73575;SDS011;61859;49.204;8.140;2022-11-09T16:54:22;3.00;;;2.20;;
73575;SDS011;61859;49.204;8.140;2022-11-09T16:56:48;2.50;;;1.20;;
73575;SDS011;61859;49.204;8.140;2022-11-09T16:59:14;1.50;;;1.33;;
73575;SDS011;61859;49.204;8.140;2022-11-09T17:01:40;1.97;;;1.67;;
73575;SDS011;61859;49.204;8.140;2022-11-09T17:04:05;2.47;;;0.93;;
73575;SDS011;61859;49.204;8.140;2022-11-09T17:06:32;0.70;;;0.70;;
73575;SDS011;61859;49.204;8.140;2022-11-09T17:08:59;1.73;;;1.07;;
73575;SDS011;61859;49.204;8.140;2022-11-09T17:11:25;2.43;;;1.00;;
73575;SDS011;61859;49.204;8.140;2022-11-09T17:13:57;0.97;;;0.67;;